createdAt,value
2022-11-24T00:01:19.079Z,12.95
2022-11-24T00:03:52.411Z,12.63
2022-11-24T00:06:19.515Z,13.20
2022-11-24T00:08:47.249Z,13.63
2022-11-24T00:11:20.905Z,11.95
2022-11-24T00:13:48.697Z,12.77
2022-11-24T00:16:21.473Z,12.77
2022-11-24T00:18:50.107Z,13.68
2022-11-24T00:21:18.703Z,12.57
2022-11-24T00:23:47.142Z,12.88
2022-11-24T00:26:19.715Z,14.15
2022-11-24T00:28:49.149Z,13.75
2022-11-24T00:31:21.737Z,12.32
2022-11-24T00:33:52.116Z,12.45
2022-11-24T00:36:20.244Z,15.90
2022-11-24T00:38:48.144Z,14.65
2022-11-24T00:41:15.056Z,15.07
2022-11-24T00:43:42.244Z,14.07
2022-11-24T00:46:09.645Z,15.30
2022-11-24T00:48:36.982Z,13.60
2022-11-24T00:51:07.144Z,13.73
2022-11-24T00:53:34.382Z,13.10
2022-11-24T00:56:04.053Z,13.43
2022-11-24T00:58:32.225Z,12.63
2022-11-24T01:01:07.865Z,14.40
2022-11-24T01:03:35.599Z,15.13
2022-11-24T01:06:15.060Z,13.65
2022-11-24T01:08:43.061Z,15.25
2022-11-24T01:11:17.451Z,14.23
2022-11-24T01:13:46.975Z,14.63
2022-11-24T01:16:15.385Z,13.73
2022-11-24T01:18:42.787Z,15.88
2022-11-24T01:21:10.394Z,15.70
2022-11-24T01:23:38.168Z,15.25
2022-11-24T01:26:07.089Z,16.02
2022-11-24T01:28:35.275Z,16.10
2022-11-24T01:31:05.922Z,13.93
2022-11-24T01:33:34.527Z,16.73
2022-11-24T01:36:02.442Z,15.20
2022-11-24T01:38:30.373Z,15.38
2022-11-24T01:41:02.172Z,14.73
2022-11-24T01:43:29.467Z,17.40
2022-11-24T01:45:58.077Z,13.85
2022-11-24T01:48:30.451Z,16.30
2022-11-24T01:51:26.874Z,16.52
2022-11-24T01:54:00.469Z,14.73
2022-11-24T01:56:28.803Z,13.95
2022-11-24T01:59:00.683Z,15.05
2022-11-24T02:01:29.368Z,13.88
2022-11-24T02:03:57.733Z,12.65
2022-11-24T02:06:29.365Z,13.43
2022-11-24T02:09:24.127Z,11.75
2022-11-24T02:11:53.817Z,13.38
2022-11-24T02:14:23.866Z,13.30
2022-11-24T02:16:53.101Z,13.20
2022-11-24T02:19:37.716Z,13.25
2022-11-24T02:22:05.201Z,12.38
2022-11-24T02:24:47.391Z,12.73
2022-11-24T02:27:14.400Z,11.32
2022-11-24T02:29:42.019Z,11.27
2022-11-24T02:32:11.416Z,12.55
2022-11-24T02:34:38.715Z,13.43
2022-11-24T02:37:05.697Z,12.40
2022-11-24T02:39:33.199Z,10.98
2022-11-24T02:42:05.282Z,11.88
2022-11-24T02:44:37.902Z,11.07
2022-11-24T02:47:07.284Z,10.32
2022-11-24T02:49:34.795Z,11.32
2022-11-24T02:52:02.012Z,10.75
2022-11-24T02:54:29.341Z,11.52
2022-11-24T02:56:56.726Z,10.32
2022-11-24T02:59:24.178Z,9.23
2022-11-24T03:01:51.163Z,10.88
2022-11-24T03:04:18.382Z,9.52
2022-11-24T03:06:45.455Z,10.23
2022-11-24T03:09:12.857Z,11.52
2022-11-24T03:11:40.035Z,10.68
2022-11-24T03:14:07.667Z,10.43
2022-11-24T03:16:34.922Z,10.50
2022-11-24T03:19:02.541Z,9.63
2022-11-24T03:21:29.877Z,10.00
2022-11-24T03:23:57.076Z,9.75
2022-11-24T03:26:26.362Z,10.77
2022-11-24T03:28:55.426Z,9.80
2022-11-24T03:31:23.118Z,10.25
2022-11-24T03:33:50.474Z,10.23
2022-11-24T03:36:17.699Z,10.38
2022-11-24T03:38:45.631Z,9.48
2022-11-24T03:41:12.925Z,10.18
2022-11-24T03:43:43.807Z,8.35
2022-11-24T03:46:12.486Z,10.90
2022-11-24T03:48:39.805Z,8.93
2022-11-24T03:51:06.986Z,10.00
2022-11-24T03:53:34.456Z,10.75
2022-11-24T03:56:02.224Z,9.50
2022-11-24T03:58:30.273Z,10.27
2022-11-24T04:00:58.007Z,11.15
2022-11-24T04:03:26.265Z,11.07
2022-11-24T04:05:53.101Z,11.13
2022-11-24T04:08:20.467Z,9.95
2022-11-24T04:10:52.403Z,9.95
2022-11-24T04:13:22.262Z,8.85
2022-11-24T04:15:49.414Z,10.88
2022-11-24T04:18:16.678Z,9.73
2022-11-24T04:20:43.805Z,9.82
2022-11-24T04:23:11.497Z,11.27
2022-11-24T04:25:38.873Z,10.15
2022-11-24T04:28:06.699Z,9.90
2022-11-24T04:30:34.004Z,10.13
2022-11-24T04:33:01.134Z,9.48
2022-11-24T04:35:28.465Z,10.25
2022-11-24T04:37:55.866Z,10.50
2022-11-24T04:40:22.763Z,10.98
2022-11-24T04:42:56.845Z,10.32
2022-11-24T04:45:23.907Z,10.80
2022-11-24T04:47:51.187Z,10.02
2022-11-24T04:50:18.600Z,9.85
2022-11-24T04:52:46.071Z,11.65
2022-11-24T04:55:13.239Z,10.10
2022-11-24T04:57:40.835Z,10.00
2022-11-24T05:00:09.257Z,9.15
2022-11-24T05:02:36.886Z,11.40
2022-11-24T05:05:04.610Z,11.07
2022-11-24T05:07:32.060Z,9.02
2022-11-24T05:10:17.925Z,9.27
2022-11-24T05:12:51.045Z,10.30
2022-11-24T05:15:18.317Z,9.75
2022-11-24T05:17:45.447Z,10.05
2022-11-24T05:20:12.347Z,10.77
2022-11-24T05:22:39.858Z,10.43
2022-11-24T05:25:06.964Z,11.05
2022-11-24T05:27:34.307Z,9.93
2022-11-24T05:30:01.413Z,9.32
2022-11-24T05:32:28.834Z,11.07
2022-11-24T05:34:56.907Z,9.68
2022-11-24T05:37:25.767Z,9.35
2022-11-24T05:39:54.671Z,9.77
2022-11-24T05:42:46.239Z,8.85
2022-11-24T05:45:20.191Z,10.10
2022-11-24T05:47:49.014Z,9.98
2022-11-24T05:50:18.626Z,9.00
2022-11-24T05:52:46.099Z,9.75
2022-11-24T05:55:15.108Z,9.27
2022-11-24T05:57:42.663Z,9.02
2022-11-24T06:00:10.879Z,10.40
2022-11-24T06:05:08.575Z,9.68
2022-11-24T06:07:35.884Z,9.50
2022-11-24T06:10:03.751Z,8.20
2022-11-24T06:12:31.170Z,9.48
2022-11-24T06:14:57.977Z,8.52
2022-11-24T06:17:25.470Z,9.82
2022-11-24T06:19:52.477Z,9.45
2022-11-24T06:22:19.726Z,9.43
2022-11-24T06:24:47.271Z,9.25
2022-11-24T06:27:14.695Z,8.55
2022-11-24T06:29:42.356Z,9.57
2022-11-24T06:32:10.098Z,11.15
2022-11-24T06:34:37.543Z,10.38
2022-11-24T06:37:05.150Z,10.40
2022-11-24T06:39:32.344Z,10.38
2022-11-24T06:42:00.341Z,9.90
2022-11-24T06:44:27.447Z,10.63
2022-11-24T06:46:55.153Z,8.90
2022-11-24T06:49:22.305Z,10.63
2022-11-24T06:51:50.513Z,9.80
2022-11-24T06:54:21.410Z,9.98
2022-11-24T06:56:48.821Z,9.60
2022-11-24T06:59:20.325Z,9.23
2022-11-24T07:01:47.773Z,10.30
2022-11-24T07:04:16.173Z,10.85
2022-11-24T07:06:44.290Z,11.27
2022-11-24T07:09:13.548Z,10.07
2022-11-24T07:11:41.188Z,11.27
2022-11-24T07:14:08.869Z,11.40
2022-11-24T07:16:36.892Z,11.70
2022-11-24T07:19:03.966Z,12.13
2022-11-24T07:21:31.448Z,11.95
2022-11-24T07:23:58.868Z,12.93
2022-11-24T07:26:27.704Z,12.95
2022-11-24T07:28:55.118Z,13.57
2022-11-24T07:31:25.207Z,13.68
2022-11-24T07:33:54.416Z,12.77
2022-11-24T07:36:23.446Z,11.40
2022-11-24T07:38:50.997Z,13.60
2022-11-24T07:41:19.741Z,13.38
2022-11-24T07:43:47.559Z,13.77
2022-11-24T07:46:17.551Z,12.18
2022-11-24T07:48:45.312Z,11.43
2022-11-24T07:51:13.665Z,12.27
2022-11-24T07:53:41.066Z,11.45
2022-11-24T07:56:10.111Z,12.57
2022-11-24T07:58:37.802Z,12.52
2022-11-24T08:01:32.153Z,13.60
2022-11-24T08:03:59.145Z,11.25
2022-11-24T08:06:36.195Z,13.15
2022-11-24T08:09:07.236Z,11.02
2022-11-24T08:11:34.888Z,11.57
2022-11-24T08:14:01.875Z,12.77
2022-11-24T08:16:29.418Z,12.90
2022-11-24T08:18:56.414Z,12.57
2022-11-24T08:21:24.895Z,12.57
2022-11-24T08:23:56.659Z,13.27
2022-11-24T08:26:25.256Z,12.40
2022-11-24T08:28:58.971Z,11.35
2022-11-24T08:31:32.943Z,12.18
2022-11-24T08:34:01.639Z,12.35
2022-11-24T08:36:30.152Z,12.13
2022-11-24T08:38:59.347Z,11.70
2022-11-24T08:41:28.798Z,10.95
2022-11-24T08:43:56.643Z,11.98
2022-11-24T08:46:24.317Z,12.23
2022-11-24T08:48:54.214Z,11.98
2022-11-24T08:51:25.131Z,12.25
2022-11-24T08:54:01.144Z,12.35
2022-11-24T08:56:31.311Z,11.35
2022-11-24T08:58:59.298Z,11.65
2022-11-24T09:01:27.369Z,11.57
2022-11-24T09:03:54.565Z,11.15
2022-11-24T09:06:25.151Z,11.23
2022-11-24T09:08:54.617Z,12.02
2022-11-24T09:11:23.091Z,11.63
2022-11-24T09:13:50.500Z,12.60
2022-11-24T09:16:23.346Z,10.45
2022-11-24T09:19:02.498Z,11.95
2022-11-24T09:21:33.692Z,10.40
2022-11-24T09:24:00.558Z,11.50
2022-11-24T09:26:33.493Z,11.57
2022-11-24T09:29:01.886Z,11.27
2022-11-24T09:31:35.942Z,12.38
2022-11-24T09:34:22.358Z,11.25
2022-11-24T09:36:51.725Z,12.27
2022-11-24T09:39:18.733Z,13.18
2022-11-24T09:42:14.868Z,10.35
2022-11-24T09:45:11.080Z,12.52
2022-11-24T09:47:41.267Z,12.02
2022-11-24T09:50:24.242Z,13.32
2022-11-24T09:53:03.748Z,12.65
2022-11-24T09:55:42.853Z,10.68
2022-11-24T09:58:49.170Z,13.30
2022-11-24T10:01:30.758Z,11.63
2022-11-24T10:04:05.649Z,13.55
2022-11-24T10:06:58.716Z,11.70
2022-11-24T10:09:32.929Z,12.48
2022-11-24T10:12:24.065Z,12.05
2022-11-24T10:15:10.115Z,12.52
2022-11-24T10:17:43.530Z,11.07
2022-11-24T10:20:23.166Z,12.77
2022-11-24T10:23:17.237Z,12.35
2022-11-24T10:25:57.546Z,12.38
2022-11-24T10:28:32.488Z,13.02
2022-11-24T10:31:17.681Z,13.13
2022-11-24T10:33:45.341Z,12.52
2022-11-24T10:36:20.503Z,14.27
2022-11-24T10:39:05.517Z,12.85
2022-11-24T10:41:58.025Z,14.65
2022-11-24T10:44:25.472Z,11.82
2022-11-24T10:46:53.045Z,13.07
2022-11-24T10:49:25.269Z,12.63
2022-11-24T10:52:15.314Z,11.82
2022-11-24T10:55:00.016Z,13.25
2022-11-24T10:57:36.520Z,13.73
2022-11-24T11:00:24.044Z,13.70
2022-11-24T11:03:11.524Z,12.77
2022-11-24T11:05:43.147Z,12.38
2022-11-24T11:08:20.950Z,13.65
2022-11-24T11:11:30.313Z,13.43
2022-11-24T11:14:03.798Z,12.65
2022-11-24T11:16:46.162Z,11.55
2022-11-24T11:22:25.139Z,12.32
2022-11-24T11:25:10.679Z,14.00
2022-11-24T11:27:39.754Z,13.45
2022-11-24T11:36:11.329Z,12.05
2022-11-24T11:38:40.671Z,12.55
2022-11-24T11:41:18.979Z,11.45
2022-11-24T11:43:50.583Z,10.85
2022-11-24T11:46:17.948Z,12.73
2022-11-24T11:48:48.146Z,13.13
2022-11-24T11:51:31.406Z,11.82
2022-11-24T11:54:07.750Z,12.13
2022-11-24T11:56:46.552Z,13.43
2022-11-24T11:59:16.722Z,12.77
2022-11-24T12:02:08.061Z,11.55
2022-11-24T12:04:57.151Z,11.48
2022-11-24T12:07:54.622Z,12.32
2022-11-24T12:10:42.402Z,11.88
2022-11-24T12:13:30.620Z,12.10
2022-11-24T12:16:08.255Z,13.10
2022-11-24T12:18:58.472Z,11.45
2022-11-24T12:21:34.306Z,12.27
2022-11-24T12:24:14.951Z,12.25
2022-11-24T12:27:43.373Z,11.15
2022-11-24T12:30:18.628Z,13.23
2022-11-24T12:33:11.876Z,11.77
2022-11-24T12:36:03.824Z,12.48
2022-11-24T12:38:55.645Z,12.07
2022-11-24T12:42:00.314Z,10.93
2022-11-24T12:45:09.961Z,11.30
2022-11-24T12:48:04.713Z,11.10
2022-11-24T12:50:37.697Z,12.32
2022-11-24T12:53:04.951Z,10.75
2022-11-24T12:55:34.429Z,9.60
2022-11-24T12:58:13.657Z,11.20
2022-11-24T13:00:51.891Z,10.73
2022-11-24T13:03:32.742Z,12.13
2022-11-24T13:06:33.901Z,11.35
2022-11-24T13:09:12.943Z,12.60
2022-11-24T13:11:42.802Z,11.35
2022-11-24T13:14:13.584Z,12.70
2022-11-24T13:17:27.524Z,13.40
2022-11-24T13:19:41.589Z,12.02
2022-11-24T13:22:10.615Z,13.25
2022-11-24T13:24:39.695Z,12.05
2022-11-24T13:27:16.195Z,12.95
2022-11-24T13:29:48.953Z,13.45
2022-11-24T13:32:19.167Z,12.30
2022-11-24T13:34:55.644Z,11.15
2022-11-24T13:37:31.459Z,12.50
2022-11-24T13:40:13.311Z,12.43
2022-11-24T13:42:56.496Z,11.30
2022-11-24T13:45:39.311Z,13.20
2022-11-24T13:48:22.231Z,13.98
2022-11-24T13:50:50.052Z,12.52
2022-11-24T13:53:35.210Z,14.80
2022-11-24T13:56:08.155Z,13.73
2022-11-24T13:58:40.759Z,14.45
2022-11-24T14:01:13.024Z,11.60
2022-11-24T14:07:01.171Z,13.05
2022-11-24T14:09:52.069Z,12.30
2022-11-24T14:12:23.875Z,14.10
2022-11-24T14:14:53.173Z,12.75
2022-11-24T14:17:27.604Z,14.45
2022-11-24T14:19:56.759Z,13.85
2022-11-24T14:22:36.577Z,14.18
2022-11-24T14:25:05.583Z,13.63
2022-11-24T14:27:36.961Z,12.48
2022-11-24T14:30:09.907Z,13.70
2022-11-24T14:32:39.881Z,12.73
2022-11-24T14:35:28.125Z,13.18
2022-11-24T14:37:56.415Z,13.75
2022-11-24T14:40:40.127Z,15.20
2022-11-24T14:43:19.135Z,14.40
2022-11-24T14:46:02.455Z,18.80
2022-11-24T14:48:37.219Z,15.60
2022-11-24T14:51:13.190Z,14.98
2022-11-24T14:53:45.554Z,19.08
2022-11-24T14:56:36.149Z,16.73
2022-11-24T14:59:17.338Z,18.08
2022-11-24T15:01:44.461Z,18.33
2022-11-24T15:07:27.044Z,19.05
2022-11-24T15:10:00.871Z,18.30
2022-11-24T15:12:41.372Z,18.63
2022-11-24T15:15:14.625Z,18.42
2022-11-24T15:17:57.450Z,18.25
2022-11-24T15:20:45.694Z,17.25
2022-11-24T15:23:26.190Z,17.98
2022-11-24T15:26:16.754Z,20.27
2022-11-24T15:28:46.148Z,17.23
2022-11-24T15:31:14.495Z,17.77
2022-11-24T15:33:42.323Z,18.35
2022-11-24T15:36:11.952Z,19.98
2022-11-24T15:38:38.848Z,19.80
2022-11-24T15:41:18.213Z,18.08
2022-11-24T15:43:45.503Z,18.27
2022-11-24T15:46:13.183Z,18.58
2022-11-24T15:48:40.151Z,18.40
2022-11-24T15:51:13.890Z,17.42
2022-11-24T15:53:54.058Z,18.35
2022-11-24T15:56:25.466Z,16.55
2022-11-24T15:58:54.346Z,18.23
2022-11-24T16:01:24.075Z,18.42
2022-11-24T16:03:51.060Z,18.08
2022-11-24T16:06:24.524Z,17.70
2022-11-24T16:08:53.491Z,18.98
2022-11-24T16:11:21.840Z,19.35
2022-11-24T16:13:53.345Z,17.77
2022-11-24T16:16:23.324Z,18.73
2022-11-24T16:18:50.675Z,17.25
2022-11-24T16:21:18.245Z,18.65
2022-11-24T16:23:46.605Z,16.13
2022-11-24T16:26:13.928Z,17.48
2022-11-24T16:28:40.987Z,16.00
2022-11-24T16:31:08.494Z,17.02
2022-11-24T16:33:38.670Z,18.85
2022-11-24T16:36:06.454Z,15.55
2022-11-24T16:38:33.500Z,17.40
2022-11-24T16:41:00.810Z,15.50
2022-11-24T16:43:29.359Z,16.10
2022-11-24T16:46:08.684Z,16.35
2022-11-24T16:48:37.148Z,15.43
2022-11-24T16:51:10.108Z,18.17
2022-11-24T16:53:37.550Z,15.55
2022-11-24T16:56:05.430Z,16.60
2022-11-24T16:58:32.825Z,17.15
2022-11-24T17:01:07.962Z,17.55
2022-11-24T17:03:37.514Z,16.83
2022-11-24T17:06:07.257Z,16.92
2022-11-24T17:08:36.068Z,15.70
2022-11-24T17:11:08.229Z,16.60
2022-11-24T17:16:07.264Z,15.05
2022-11-24T17:18:34.928Z,17.77
2022-11-24T17:21:07.727Z,15.93
2022-11-24T17:23:36.282Z,17.17
2022-11-24T17:26:10.608Z,16.98
2022-11-24T17:28:38.443Z,17.08
2022-11-24T17:31:10.461Z,16.58
2022-11-24T17:33:37.290Z,16.90
2022-11-24T17:36:06.771Z,16.58
2022-11-24T17:38:35.177Z,17.05
2022-11-24T17:41:02.787Z,18.30
2022-11-24T17:43:29.786Z,17.00
2022-11-24T17:46:01.029Z,18.55
2022-11-24T17:48:29.066Z,17.15
2022-11-24T17:51:03.531Z,17.25
2022-11-24T17:53:31.601Z,18.98
2022-11-24T17:56:00.106Z,16.52
2022-11-24T17:58:28.586Z,19.88
2022-11-24T18:00:56.811Z,21.00
2022-11-24T18:03:25.720Z,18.80
2022-11-24T18:05:52.899Z,19.00
2022-11-24T18:08:20.323Z,21.08
2022-11-24T18:10:47.731Z,18.13
2022-11-24T18:13:33.797Z,19.70
2022-11-24T18:16:04.273Z,19.63
2022-11-24T18:18:31.326Z,18.35
2022-11-24T18:21:00.973Z,18.45
2022-11-24T18:23:30.021Z,20.35
2022-11-24T18:26:02.740Z,21.05
2022-11-24T18:28:30.368Z,20.63
2022-11-24T18:31:02.593Z,19.63
2022-11-24T18:33:30.005Z,19.05
2022-11-24T18:36:02.061Z,20.30
2022-11-24T18:38:29.493Z,19.90
2022-11-24T18:40:59.394Z,19.02
2022-11-24T18:43:29.389Z,18.60
2022-11-24T18:45:56.976Z,21.08
2022-11-24T18:48:25.797Z,19.17
2022-11-24T18:50:54.843Z,19.17
2022-11-24T18:53:24.548Z,20.63
2022-11-24T18:56:06.637Z,20.42
2022-11-24T18:58:35.584Z,20.00
2022-11-24T19:01:16.978Z,19.60
2022-11-24T19:03:48.583Z,24.05
2022-11-24T19:06:19.758Z,22.17
2022-11-24T19:08:48.124Z,21.20
2022-11-24T19:11:28.419Z,25.92
2022-11-24T19:13:57.063Z,23.02
2022-11-24T19:16:25.000Z,23.38
2022-11-24T19:18:56.869Z,22.80
2022-11-24T19:21:23.810Z,23.45
2022-11-24T19:23:50.937Z,23.95
2022-11-24T19:26:18.290Z,20.23
2022-11-24T19:28:45.607Z,20.95
2022-11-24T19:31:14.485Z,19.52
2022-11-24T19:33:42.446Z,18.90
2022-11-24T19:36:19.152Z,21.67
2022-11-24T19:38:55.286Z,19.33
2022-11-24T19:41:24.709Z,18.90
2022-11-24T19:43:56.416Z,19.77
2022-11-24T19:46:28.032Z,22.33
2022-11-24T19:48:59.394Z,17.38
2022-11-24T19:51:30.756Z,19.25
2022-11-24T19:53:58.931Z,17.73
2022-11-24T19:56:28.664Z,17.23
2022-11-24T19:58:56.450Z,16.73
2022-11-24T20:01:29.189Z,17.67
2022-11-24T20:03:59.151Z,16.92
2022-11-24T20:06:28.662Z,17.63
2022-11-24T20:08:57.997Z,15.93
2022-11-24T20:11:25.270Z,16.95
2022-11-24T20:13:52.509Z,16.00
2022-11-24T20:16:29.673Z,16.25
2022-11-24T20:18:59.243Z,17.33
2022-11-24T20:21:31.206Z,16.20
2022-11-24T20:23:59.560Z,20.15
2022-11-24T20:26:32.250Z,18.60
2022-11-24T20:29:00.395Z,17.55
2022-11-24T20:31:33.923Z,16.33
2022-11-24T20:34:02.533Z,17.40
2022-11-24T20:36:31.670Z,18.27
2022-11-24T20:39:00.708Z,18.98
2022-11-24T20:41:30.477Z,17.33
2022-11-24T20:44:00.768Z,16.77
2022-11-24T20:46:30.543Z,19.33
2022-11-24T20:48:58.207Z,18.17
2022-11-24T20:51:31.591Z,16.85
2022-11-24T20:54:01.378Z,17.45
2022-11-24T20:56:31.338Z,17.05
2022-11-24T20:58:59.156Z,16.13
2022-11-24T21:01:30.136Z,17.15
2022-11-24T21:03:59.337Z,16.52
2022-11-24T21:06:28.210Z,15.55
2022-11-24T21:09:00.396Z,15.23
2022-11-24T21:11:30.040Z,17.35
2022-11-24T21:13:57.114Z,16.08
2022-11-24T21:16:29.771Z,16.92
2022-11-24T21:18:59.304Z,16.58
2022-11-24T21:21:33.399Z,15.85
2022-11-24T21:24:01.912Z,13.75
2022-11-24T21:26:29.355Z,15.35
2022-11-24T21:28:57.374Z,16.13
2022-11-24T21:31:24.678Z,16.33
2022-11-24T21:33:53.482Z,15.07
2022-11-24T21:36:23.272Z,15.82
2022-11-24T21:38:55.739Z,15.68
2022-11-24T21:41:25.664Z,16.45
2022-11-24T21:43:55.515Z,16.67
2022-11-24T21:46:23.593Z,17.00
2022-11-24T21:48:50.896Z,17.60
2022-11-24T21:51:20.771Z,17.58
2022-11-24T21:53:48.341Z,16.58
2022-11-24T21:56:20.474Z,16.92
2022-11-24T21:58:58.031Z,16.88
2022-11-24T22:01:28.121Z,17.45
2022-11-24T22:03:56.336Z,17.05
2022-11-24T22:06:24.117Z,15.27
2022-11-24T22:08:51.108Z,15.05
2022-11-24T22:11:23.160Z,14.85
2022-11-24T22:13:51.014Z,15.07
2022-11-24T22:16:21.212Z,17.63
2022-11-24T22:18:49.307Z,18.55
2022-11-24T22:21:23.789Z,16.30
2022-11-24T22:23:52.596Z,18.00
2022-11-24T22:26:22.968Z,17.45
2022-11-24T22:28:51.178Z,18.67
2022-11-24T22:31:20.891Z,18.25
2022-11-24T22:33:48.844Z,16.65
2022-11-24T22:36:17.660Z,15.85
2022-11-24T22:38:44.581Z,16.77
2022-11-24T22:41:14.504Z,18.02
2022-11-24T22:43:42.932Z,18.20
2022-11-24T22:46:15.982Z,17.77
2022-11-24T22:48:45.174Z,17.85
2022-11-24T22:51:34.255Z,17.17
2022-11-24T22:54:03.832Z,20.98
2022-11-24T22:56:32.632Z,18.67
2022-11-24T22:59:00.947Z,17.45
2022-11-24T23:01:31.609Z,17.88
2022-11-24T23:03:58.480Z,19.45
2022-11-24T23:06:29.580Z,16.85
2022-11-24T23:08:58.533Z,18.40
2022-11-24T23:11:37.170Z,18.33
2022-11-24T23:14:05.562Z,18.58
2022-11-24T23:16:32.956Z,19.10
2022-11-24T23:19:00.184Z,19.33
2022-11-24T23:21:29.818Z,18.23
2022-11-24T23:23:58.847Z,17.30
2022-11-24T23:26:35.408Z,18.35
2022-11-24T23:29:02.623Z,16.70
2022-11-24T23:31:30.253Z,19.58
2022-11-24T23:33:59.035Z,20.55
2022-11-24T23:36:26.513Z,17.85
2022-11-24T23:38:54.581Z,19.83
2022-11-24T23:41:24.689Z,17.35
2022-11-24T23:43:52.474Z,17.33
2022-11-24T23:46:22.146Z,18.92
2022-11-24T23:48:51.326Z,18.52
2022-11-24T23:51:18.357Z,16.63
2022-11-24T23:53:45.982Z,19.08
2022-11-24T23:56:19.347Z,19.05
2022-11-24T23:58:46.889Z,17.33
